createdAt,value
2019-01-18T00:00:27.804Z,3.40
2019-01-18T00:01:26.848Z,3.60
2019-01-18T00:02:27.011Z,3.60
2019-01-18T00:03:27.182Z,3.40
2019-01-18T00:04:27.356Z,3.50
2019-01-18T00:05:27.522Z,3.50
2019-01-18T00:06:27.681Z,3.40
2019-01-18T00:07:27.840Z,3.30
2019-01-18T00:08:28.001Z,3.90
2019-01-18T00:09:28.169Z,3.80
2019-01-18T00:10:28.334Z,3.80
2019-01-18T00:11:28.498Z,3.50
2019-01-18T00:12:28.664Z,3.50
2019-01-18T00:13:28.816Z,3.50
2019-01-18T00:14:28.977Z,3.50
2019-01-18T00:15:29.148Z,3.60
2019-01-18T00:16:29.314Z,3.00
2019-01-18T00:17:29.475Z,3.30
2019-01-18T00:18:29.636Z,3.40
2019-01-18T00:19:29.801Z,3.30
2019-01-18T00:20:30.183Z,3.40
2019-01-18T00:21:30.095Z,3.50
2019-01-18T00:22:30.257Z,3.40
2019-01-18T00:23:30.435Z,3.30
2019-01-18T00:24:30.592Z,3.50
2019-01-18T00:25:30.753Z,3.50
2019-01-18T00:26:30.920Z,3.30
2019-01-18T00:27:31.085Z,3.60
2019-01-18T00:28:31.256Z,3.30
2019-01-18T00:29:31.421Z,3.20
2019-01-18T00:30:31.587Z,3.10
2019-01-18T00:31:31.782Z,3.20
2019-01-18T00:32:31.957Z,3.20
2019-01-18T00:33:32.121Z,3.20
2019-01-18T00:34:32.286Z,3.30
2019-01-18T00:35:32.451Z,3.40
2019-01-18T00:36:32.619Z,3.10
2019-01-18T00:37:32.785Z,3.40
2019-01-18T00:38:32.949Z,3.30
2019-01-18T00:39:33.115Z,3.40
2019-01-18T00:40:33.276Z,3.20
2019-01-18T00:41:33.440Z,3.80
2019-01-18T00:42:33.604Z,3.80
2019-01-18T00:43:33.774Z,3.60
2019-01-18T00:44:33.939Z,3.60
2019-01-18T00:45:34.110Z,3.60
2019-01-18T00:46:34.274Z,3.60
2019-01-18T00:47:34.444Z,3.40
2019-01-18T00:48:34.610Z,3.80
2019-01-18T00:49:34.774Z,3.70
2019-01-18T00:50:34.935Z,3.40
2019-01-18T00:51:35.120Z,3.50
2019-01-18T00:52:35.307Z,3.80
2019-01-18T00:53:35.460Z,3.60
2019-01-18T00:54:35.617Z,3.40
2019-01-18T00:55:35.790Z,3.80
2019-01-18T00:56:35.944Z,3.40
2019-01-18T00:57:36.130Z,3.30
2019-01-18T00:58:36.282Z,3.20
2019-01-18T00:59:36.499Z,3.20
2019-01-18T01:00:36.605Z,3.50
2019-01-18T01:01:36.784Z,3.10
2019-01-18T01:02:36.943Z,2.90
2019-01-18T01:03:37.134Z,3.30
2019-01-18T01:04:37.248Z,3.30
2019-01-18T01:05:37.419Z,3.30
2019-01-18T01:06:37.584Z,3.30
2019-01-18T01:07:37.748Z,3.30
2019-01-18T01:08:37.918Z,3.00
2019-01-18T01:09:38.072Z,3.30
2019-01-18T01:10:38.362Z,3.10
2019-01-18T01:11:38.394Z,3.00
2019-01-18T01:12:38.562Z,3.20
2019-01-18T01:13:38.735Z,3.00
2019-01-18T01:14:38.937Z,3.30
2019-01-18T01:15:39.068Z,3.30
2019-01-18T01:16:39.235Z,2.90
2019-01-18T01:17:39.415Z,3.00
2019-01-18T01:18:39.596Z,2.70
2019-01-18T01:19:39.770Z,3.00
2019-01-18T01:20:39.949Z,3.20
2019-01-18T01:21:40.106Z,2.80
2019-01-18T01:22:40.269Z,3.10
2019-01-18T01:23:40.428Z,2.50
2019-01-18T01:24:40.599Z,2.70
2019-01-18T01:25:40.765Z,2.80
2019-01-18T01:26:40.929Z,3.00
2019-01-18T01:27:41.104Z,3.20
2019-01-18T01:28:41.260Z,3.20
2019-01-18T01:29:43.207Z,2.80
2019-01-18T01:30:41.602Z,3.10
2019-01-18T01:31:41.774Z,2.70
2019-01-18T01:32:41.941Z,2.60
2019-01-18T01:33:42.107Z,2.80
2019-01-18T01:34:42.271Z,2.80
2019-01-18T01:35:42.434Z,2.30
2019-01-18T01:36:42.600Z,2.50
2019-01-18T01:37:42.765Z,2.80
2019-01-18T01:38:42.919Z,2.50
2019-01-18T01:39:43.097Z,2.50
2019-01-18T01:40:43.257Z,2.70
2019-01-18T01:41:43.419Z,2.70
2019-01-18T01:42:43.581Z,2.80
2019-01-18T01:43:43.746Z,2.70
2019-01-18T01:44:43.917Z,2.60
2019-01-18T01:45:44.079Z,2.50
2019-01-18T01:46:44.239Z,2.70
2019-01-18T01:47:44.403Z,2.80
2019-01-18T01:48:44.574Z,2.70
2019-01-18T01:49:44.737Z,2.60
2019-01-18T01:50:44.906Z,2.70
2019-01-18T01:51:45.083Z,2.60
2019-01-18T01:52:45.239Z,3.20
2019-01-18T01:53:45.399Z,2.80
2019-01-18T01:54:45.581Z,2.60
2019-01-18T01:55:45.738Z,2.80
2019-01-18T01:56:45.900Z,3.00
2019-01-18T01:57:46.075Z,2.40
2019-01-18T01:58:46.235Z,2.50
2019-01-18T01:59:49.957Z,2.70
2019-01-18T02:00:46.566Z,3.30
2019-01-18T02:01:46.722Z,2.60
2019-01-18T02:02:46.883Z,2.70
2019-01-18T02:03:47.061Z,2.90
2019-01-18T02:04:47.226Z,2.70
2019-01-18T02:05:47.395Z,2.50
2019-01-18T02:06:47.560Z,2.80
2019-01-18T02:07:47.724Z,3.20
2019-01-18T02:08:47.892Z,3.10
2019-01-18T02:09:48.055Z,2.90
2019-01-18T02:10:48.218Z,3.00
2019-01-18T02:11:48.388Z,3.10
2019-01-18T02:12:48.550Z,3.30
2019-01-18T02:13:48.713Z,3.30
2019-01-18T02:14:48.879Z,3.30
2019-01-18T02:15:49.052Z,3.10
2019-01-18T02:16:49.227Z,2.80
2019-01-18T02:17:49.380Z,3.20
2019-01-18T02:18:49.564Z,3.20
2019-01-18T02:19:49.734Z,3.00
2019-01-18T02:20:49.905Z,3.10
2019-01-18T02:21:50.070Z,3.00
2019-01-18T02:22:50.230Z,3.10
2019-01-18T02:23:50.396Z,3.20
2019-01-18T02:24:52.453Z,2.70
2019-01-18T02:25:50.734Z,2.90
2019-01-18T02:26:50.905Z,2.80
2019-01-18T02:27:51.073Z,2.80
2019-01-18T02:28:51.236Z,2.80
2019-01-18T02:29:56.549Z,2.80
2019-01-18T02:30:51.573Z,2.90
2019-01-18T02:31:51.735Z,2.60
2019-01-18T02:32:51.892Z,2.60
2019-01-18T02:33:52.062Z,2.60
2019-01-18T02:34:52.277Z,2.40
2019-01-18T02:35:52.439Z,2.20
2019-01-18T02:36:52.621Z,2.40
2019-01-18T02:37:52.844Z,2.60
2019-01-18T02:38:52.909Z,2.90
2019-01-18T02:39:53.077Z,2.80
2019-01-18T02:40:53.317Z,2.40
2019-01-18T02:41:53.418Z,2.40
2019-01-18T02:42:53.589Z,2.40
2019-01-18T02:43:53.751Z,2.60
2019-01-18T02:44:53.917Z,2.50
2019-01-18T02:45:54.094Z,2.50
2019-01-18T02:46:54.251Z,2.30
2019-01-18T02:47:54.495Z,2.50
2019-01-18T02:48:54.549Z,2.30
2019-01-18T02:49:54.702Z,2.50
2019-01-18T02:50:54.919Z,2.60
2019-01-18T02:51:55.085Z,2.60
2019-01-18T02:52:55.246Z,2.70
2019-01-18T02:53:55.411Z,2.30
2019-01-18T02:54:55.579Z,2.40
2019-01-18T02:55:55.740Z,2.60
2019-01-18T02:56:55.903Z,2.70
2019-01-18T02:57:56.106Z,2.70
2019-01-18T02:58:56.271Z,2.80
2019-01-18T02:59:56.426Z,2.50
2019-01-18T03:00:56.610Z,2.80
2019-01-18T03:01:56.770Z,3.20
2019-01-18T03:02:56.949Z,3.70
2019-01-18T03:03:57.091Z,3.30
2019-01-18T03:04:57.258Z,3.60
2019-01-18T03:05:57.422Z,3.30
2019-01-18T03:06:57.580Z,3.00
2019-01-18T03:07:57.751Z,2.80
2019-01-18T03:08:57.915Z,3.20
2019-01-18T03:09:58.087Z,2.80
2019-01-18T03:10:58.248Z,2.80
2019-01-18T03:11:58.414Z,2.80
2019-01-18T03:12:58.582Z,2.70
2019-01-18T03:13:58.746Z,2.80
2019-01-18T03:14:58.903Z,2.50
2019-01-18T03:15:59.078Z,2.50
2019-01-18T03:16:59.241Z,2.30
2019-01-18T03:17:59.405Z,2.40
2019-01-18T03:18:59.575Z,2.40
2019-01-18T03:19:59.740Z,2.40
2019-01-18T03:20:59.900Z,2.20
2019-01-18T03:22:00.060Z,2.40
2019-01-18T03:23:00.226Z,2.40
2019-01-18T03:24:00.385Z,2.50
2019-01-18T03:25:00.549Z,2.20
2019-01-18T03:26:00.716Z,2.20
2019-01-18T03:27:00.875Z,2.40
2019-01-18T03:28:01.040Z,2.20
2019-01-18T03:29:01.206Z,2.20
2019-01-18T03:30:01.373Z,2.20
2019-01-18T03:31:01.543Z,2.10
2019-01-18T03:32:01.702Z,2.10
2019-01-18T03:33:01.870Z,2.20
2019-01-18T03:34:02.039Z,2.10
2019-01-18T03:35:02.210Z,2.60
2019-01-18T03:36:02.382Z,2.10
2019-01-18T03:37:02.543Z,2.30
2019-01-18T03:38:02.696Z,2.30
2019-01-18T03:39:02.868Z,2.20
2019-01-18T03:40:03.035Z,2.20
2019-01-18T03:41:03.210Z,2.50
2019-01-18T03:42:03.377Z,2.20
2019-01-18T03:43:03.541Z,2.30
2019-01-18T03:44:03.696Z,2.30
2019-01-18T03:45:03.870Z,2.30
2019-01-18T03:46:04.031Z,2.30
2019-01-18T03:47:04.216Z,2.10
2019-01-18T03:48:04.385Z,2.20
2019-01-18T03:49:04.552Z,2.10
2019-01-18T03:50:04.720Z,2.30
2019-01-18T03:51:04.882Z,2.00
2019-01-18T03:52:05.044Z,2.20
2019-01-18T03:53:05.212Z,2.70
2019-01-18T03:54:05.364Z,2.20
2019-01-18T03:55:05.527Z,2.30
2019-01-18T03:56:05.719Z,2.00
2019-01-18T03:57:05.873Z,2.40
2019-01-18T03:58:06.032Z,2.20
2019-01-18T03:59:06.196Z,2.20
2019-01-18T04:00:06.358Z,2.60
2019-01-18T04:01:06.516Z,2.30
2019-01-18T04:02:06.678Z,2.20
2019-01-18T04:03:06.841Z,2.20
2019-01-18T04:04:07.006Z,2.10
2019-01-18T04:05:07.166Z,1.90
2019-01-18T04:06:07.337Z,2.10
2019-01-18T04:07:07.543Z,2.40
2019-01-18T04:08:07.717Z,2.30
2019-01-18T04:09:07.881Z,2.20
2019-01-18T04:10:08.053Z,2.30
2019-01-18T04:11:08.218Z,2.00
2019-01-18T04:12:08.384Z,2.00
2019-01-18T04:13:08.547Z,1.90
2019-01-18T04:14:08.713Z,2.20
2019-01-18T04:15:08.879Z,2.30
2019-01-18T04:16:09.039Z,2.10
2019-01-18T04:17:09.201Z,1.90
2019-01-18T04:18:09.359Z,2.00
2019-01-18T04:19:09.524Z,1.80
2019-01-18T04:20:09.684Z,1.80
2019-01-18T04:21:09.840Z,1.90
2019-01-18T04:22:10.012Z,2.30
2019-01-18T04:23:10.158Z,1.90
2019-01-18T04:24:10.331Z,2.00
2019-01-18T04:25:10.499Z,1.90
2019-01-18T04:26:10.661Z,2.10
2019-01-18T04:27:10.823Z,2.10
2019-01-18T04:28:10.992Z,1.90
2019-01-18T04:29:11.161Z,1.70
2019-01-18T04:30:11.329Z,1.90
2019-01-18T04:31:11.491Z,2.20
2019-01-18T04:32:11.653Z,2.00
2019-01-18T04:33:11.824Z,1.70
2019-01-18T04:34:11.972Z,1.80
2019-01-18T04:35:12.134Z,1.90
2019-01-18T04:36:12.308Z,2.10
2019-01-18T04:37:12.477Z,1.80
2019-01-18T04:38:12.639Z,2.00
2019-01-18T04:39:12.806Z,2.20
2019-01-18T04:40:12.968Z,1.80
2019-01-18T04:41:13.127Z,1.70
2019-01-18T04:42:13.303Z,2.20
2019-01-18T04:43:13.468Z,1.90
2019-01-18T04:44:13.666Z,2.00
2019-01-18T04:45:13.803Z,1.90
2019-01-18T04:46:13.974Z,1.90
2019-01-18T04:47:14.141Z,2.00
2019-01-18T04:48:14.310Z,2.00
2019-01-18T04:49:14.477Z,1.70
2019-01-18T04:50:14.634Z,2.30
2019-01-18T04:51:14.802Z,1.90
2019-01-18T04:52:14.958Z,1.80
2019-01-18T04:53:15.161Z,1.80
2019-01-18T04:54:15.331Z,1.80
2019-01-18T04:55:15.634Z,2.10
2019-01-18T04:56:15.762Z,1.90
2019-01-18T04:57:16.014Z,1.90
2019-01-18T04:58:16.165Z,2.00
2019-01-18T04:59:16.202Z,2.00
2019-01-18T05:00:16.456Z,1.90
2019-01-18T05:01:16.622Z,2.00
2019-01-18T05:02:16.656Z,1.80
2019-01-18T05:03:16.945Z,1.70
2019-01-18T05:04:16.995Z,1.90
2019-01-18T05:05:17.174Z,1.50
2019-01-18T05:06:17.333Z,1.70
2019-01-18T05:07:17.490Z,1.90
2019-01-18T05:08:17.655Z,1.80
2019-01-18T05:09:17.816Z,1.80
2019-01-18T05:10:17.981Z,1.60
2019-01-18T05:11:18.154Z,1.70
2019-01-18T05:12:18.314Z,1.80
2019-01-18T05:13:18.477Z,1.90
2019-01-18T05:14:18.650Z,1.80
2019-01-18T05:15:18.819Z,1.90
2019-01-18T05:16:18.983Z,1.70
2019-01-18T05:17:19.150Z,1.80
2019-01-18T05:18:19.318Z,1.70
2019-01-18T05:19:19.502Z,1.70
2019-01-18T05:20:19.652Z,1.50
2019-01-18T05:21:19.825Z,1.60
2019-01-18T05:22:19.987Z,1.60
2019-01-18T05:23:20.147Z,1.80
2019-01-18T05:24:20.310Z,1.70
2019-01-18T05:25:20.475Z,1.30
2019-01-18T05:26:20.642Z,1.70
2019-01-18T05:27:20.805Z,1.60
2019-01-18T05:28:20.967Z,1.40
2019-01-18T05:29:21.147Z,1.50
2019-01-18T05:30:21.316Z,1.70
2019-01-18T05:31:21.492Z,1.60
2019-01-18T05:32:21.654Z,1.70
2019-01-18T05:33:21.835Z,1.80
2019-01-18T05:34:21.978Z,1.60
2019-01-18T05:35:22.277Z,1.60
2019-01-18T05:36:22.261Z,1.60
2019-01-18T05:37:22.420Z,1.60
2019-01-18T05:38:22.590Z,1.60
2019-01-18T05:39:22.737Z,1.80
2019-01-18T05:40:22.908Z,1.40
2019-01-18T05:41:23.084Z,1.70
2019-01-18T05:42:23.268Z,1.60
2019-01-18T05:43:23.480Z,1.70
2019-01-18T05:44:23.588Z,1.70
2019-01-18T05:45:23.759Z,1.50
2019-01-18T05:46:23.921Z,1.40
2019-01-18T05:47:24.082Z,1.50
2019-01-18T05:48:24.245Z,1.70
2019-01-18T05:49:24.437Z,1.60
2019-01-18T05:50:24.561Z,1.50
2019-01-18T05:51:24.733Z,2.00
2019-01-18T05:52:24.885Z,1.80
2019-01-18T05:53:25.185Z,1.60
2019-01-18T05:54:25.214Z,1.80
2019-01-18T05:55:25.396Z,1.60
2019-01-18T05:56:25.553Z,1.60
2019-01-18T05:57:25.711Z,1.70
2019-01-18T05:58:25.878Z,1.60
2019-01-18T05:59:26.070Z,1.70
2019-01-18T06:00:26.204Z,1.70
2019-01-18T06:01:26.576Z,1.50
2019-01-18T06:02:26.530Z,1.60
2019-01-18T06:03:26.694Z,1.40
2019-01-18T06:04:26.858Z,1.60
2019-01-18T06:05:27.035Z,1.50
2019-01-18T06:06:27.198Z,1.40
2019-01-18T06:07:27.362Z,1.70
2019-01-18T06:08:27.576Z,1.60
2019-01-18T06:09:27.736Z,1.80
2019-01-18T06:10:27.865Z,1.50
2019-01-18T06:11:28.042Z,1.50
2019-01-18T06:12:28.229Z,1.60
2019-01-18T06:13:28.369Z,1.70
2019-01-18T06:14:28.536Z,1.70
2019-01-18T06:15:28.743Z,2.00
2019-01-18T06:16:29.021Z,1.60
2019-01-18T06:17:29.133Z,1.60
2019-01-18T06:18:29.306Z,1.50
2019-01-18T06:19:30.990Z,1.70
2019-01-18T06:20:29.623Z,1.60
2019-01-18T06:21:29.704Z,1.40
2019-01-18T06:22:29.820Z,1.40
2019-01-18T06:23:29.982Z,1.30
2019-01-18T06:24:30.156Z,1.30
2019-01-18T06:25:30.326Z,1.30
2019-01-18T06:26:30.498Z,1.50
2019-01-18T06:27:30.911Z,1.40
2019-01-18T06:28:30.777Z,1.30
2019-01-18T06:29:30.940Z,1.30
2019-01-18T06:30:31.253Z,1.30
2019-01-18T06:31:31.295Z,1.40
2019-01-18T06:32:31.466Z,1.40
2019-01-18T06:33:35.583Z,1.40
2019-01-18T06:34:33.639Z,1.10
2019-01-18T06:35:31.953Z,1.20
2019-01-18T06:36:32.113Z,1.30
2019-01-18T06:37:32.302Z,1.20
2019-01-18T06:38:32.467Z,1.10
2019-01-18T06:39:32.622Z,1.00
2019-01-18T06:40:32.785Z,1.30
2019-01-18T06:41:32.943Z,1.30
2019-01-18T06:42:33.386Z,1.50
2019-01-18T06:43:33.310Z,1.30
2019-01-18T06:44:33.559Z,1.20
2019-01-18T06:45:33.594Z,1.10
2019-01-18T06:46:33.757Z,1.30
2019-01-18T06:47:33.915Z,1.30
2019-01-18T06:48:34.079Z,1.20
2019-01-18T06:49:35.516Z,1.40
2019-01-18T06:50:35.258Z,1.30
2019-01-18T06:51:37.606Z,1.10
2019-01-18T06:52:34.700Z,1.20
2019-01-18T06:53:34.866Z,1.20
2019-01-18T06:54:35.421Z,1.30
2019-01-18T06:55:40.995Z,1.20
2019-01-18T06:56:35.311Z,1.30
2019-01-18T06:57:36.535Z,1.20
2019-01-18T06:58:38.967Z,1.50
2019-01-18T06:59:37.530Z,1.20
2019-01-18T07:00:35.962Z,1.30
2019-01-18T07:01:40.528Z,1.10
2019-01-18T07:02:38.177Z,1.30
2019-01-18T07:03:36.406Z,1.20
2019-01-18T07:04:40.796Z,1.30
2019-01-18T07:10:20.622Z,1.10
2019-01-18T07:12:49.450Z,1.10
2019-01-18T07:13:48.757Z,1.20
2019-01-18T07:21:17.050Z,1.30
2019-01-18T07:22:27.532Z,1.30
2019-01-18T07:33:52.976Z,1.70
2019-01-18T07:35:10.339Z,1.70
2019-01-18T08:10:24.045Z,2.70
2019-01-18T08:11:18.972Z,2.70
2019-01-18T08:12:18.361Z,2.40
2019-01-18T08:13:18.771Z,2.90
2019-01-18T08:14:19.782Z,2.70
2019-01-18T08:15:18.803Z,2.80
2019-01-18T08:16:21.073Z,3.00
2019-01-18T08:17:19.156Z,3.10
2019-01-18T08:18:21.142Z,3.40
2019-01-18T08:19:19.543Z,2.70
2019-01-18T08:20:21.660Z,2.80
2019-01-18T08:21:19.883Z,2.70
2019-01-18T08:22:27.985Z,2.70
2019-01-18T08:23:32.453Z,2.40
2019-01-18T08:24:22.320Z,2.60
2019-01-18T08:26:56.085Z,2.60
2019-01-18T08:28:11.166Z,2.70
2019-01-18T08:28:56.187Z,6.30
2019-01-18T08:29:55.209Z,8.60
2019-01-18T08:31:16.765Z,7.00
2019-01-18T08:33:32.305Z,3.20
2019-01-18T08:34:31.501Z,3.50
2019-01-18T08:35:27.005Z,3.10
2019-01-18T08:36:35.094Z,3.00
2019-01-18T08:37:29.362Z,3.10
2019-01-18T08:38:30.500Z,3.40
2019-01-18T08:39:36.346Z,3.10
2019-01-18T08:40:30.005Z,3.60
2019-01-18T08:41:32.480Z,3.40
2019-01-18T08:42:29.441Z,3.20
2019-01-18T08:43:27.971Z,2.90
2019-01-18T08:44:34.634Z,3.10
2019-01-18T08:45:36.183Z,2.80
2019-01-18T08:46:28.651Z,2.70
2019-01-18T08:47:28.789Z,3.00
2019-01-18T08:48:28.782Z,2.40
2019-01-18T08:49:29.102Z,2.70
2019-01-18T08:50:29.397Z,2.50
2019-01-18T08:51:44.295Z,2.50
2019-01-18T08:52:30.963Z,2.10
2019-01-18T08:53:31.824Z,2.20
2019-01-18T08:54:31.898Z,2.20
2019-01-18T09:00:40.518Z,2.10
2019-01-18T09:01:21.312Z,2.20
2019-01-18T09:05:28.012Z,2.20
2019-01-18T09:06:18.253Z,2.10
2019-01-18T09:07:11.523Z,2.10
2019-01-18T09:08:14.962Z,2.20
2019-01-18T09:09:13.293Z,2.20
2019-01-18T09:10:34.557Z,2.30
2019-01-18T09:11:23.235Z,2.90
2019-01-18T09:12:11.957Z,2.90
2019-01-18T09:13:19.456Z,2.80
2019-01-18T09:14:36.195Z,2.70
2019-01-18T09:15:14.565Z,2.10
2019-01-18T09:16:14.057Z,2.50
2019-01-18T09:17:12.469Z,2.20
2019-01-18T09:18:12.657Z,2.30
2019-01-18T09:19:12.838Z,2.20
2019-01-18T09:20:12.991Z,2.00
2019-01-18T09:21:13.155Z,2.20
2019-01-18T09:22:16.217Z,2.30
2019-01-18T09:23:13.523Z,2.30
2019-01-18T09:24:13.598Z,2.30
2019-01-18T09:25:13.779Z,2.10
2019-01-18T09:26:14.035Z,2.40
2019-01-18T09:27:14.167Z,1.90
2019-01-18T09:28:14.348Z,2.30
2019-01-18T09:29:14.519Z,2.00
2019-01-18T09:30:16.618Z,2.10
2019-01-18T09:31:14.825Z,2.20
2019-01-18T09:32:18.377Z,2.40
2019-01-18T09:33:17.365Z,2.20
2019-01-18T09:34:33.129Z,2.00
2019-01-18T09:35:18.045Z,2.20
2019-01-18T09:36:15.636Z,2.20
2019-01-18T09:37:15.769Z,2.20
2019-01-18T09:38:17.848Z,2.00
2019-01-18T09:39:16.105Z,2.20
2019-01-18T09:40:17.515Z,2.30
2019-01-18T09:41:16.524Z,2.00
2019-01-18T09:42:18.692Z,2.00
2019-01-18T09:43:16.937Z,2.10
2019-01-18T09:44:17.261Z,2.00
2019-01-18T09:45:42.075Z,2.00
2019-01-18T09:46:20.243Z,2.30
2019-01-18T09:47:27.971Z,1.90
2019-01-18T09:51:35.663Z,1.80
2019-01-18T09:52:27.706Z,1.70
2019-01-18T09:53:33.226Z,2.10
2019-01-18T09:58:29.150Z,1.40
2019-01-18T09:59:28.585Z,1.60
2019-01-18T10:00:34.695Z,1.60
2019-01-18T10:06:54.083Z,1.10
2019-01-18T10:07:30.658Z,1.40
2019-01-18T10:08:26.287Z,1.50
2019-01-18T10:09:25.085Z,1.40
2019-01-18T10:10:24.880Z,1.30
2019-01-18T10:11:25.030Z,1.50
2019-01-18T10:12:25.133Z,1.60
2019-01-18T10:13:25.120Z,1.60
2019-01-18T10:14:25.326Z,1.20
2019-01-18T10:15:25.593Z,1.40
2019-01-18T10:16:27.597Z,1.30
2019-01-18T10:17:25.697Z,1.20
2019-01-18T10:18:25.873Z,1.20
2019-01-18T10:19:26.274Z,1.20
2019-01-18T10:20:26.294Z,1.30
2019-01-18T10:21:26.561Z,1.20
2019-01-18T10:22:26.822Z,1.20
2019-01-18T10:23:27.087Z,1.40
2019-01-18T10:24:26.966Z,1.30
2019-01-18T10:25:27.145Z,1.20
2019-01-18T10:26:27.416Z,1.20
2019-01-18T10:27:27.459Z,1.40
2019-01-18T10:28:27.670Z,1.30
2019-01-18T10:29:28.253Z,1.30
2019-01-18T10:30:28.020Z,1.10
2019-01-18T10:31:31.177Z,1.30
2019-01-18T10:32:30.480Z,1.30
2019-01-18T10:33:28.546Z,1.20
2019-01-18T10:34:28.736Z,1.20
2019-01-18T10:35:28.903Z,1.50
2019-01-18T10:36:29.091Z,1.30
2019-01-18T10:37:29.296Z,1.30
2019-01-18T10:38:29.462Z,1.50
2019-01-18T10:39:29.850Z,1.30
2019-01-18T10:40:29.809Z,1.40
2019-01-18T10:41:29.984Z,1.50
2019-01-18T10:42:30.161Z,1.30
2019-01-18T10:43:30.324Z,1.20
2019-01-18T10:44:30.485Z,1.10
2019-01-18T10:45:30.662Z,1.30
2019-01-18T10:46:30.945Z,1.20
2019-01-18T10:47:31.027Z,1.30
2019-01-18T10:48:31.195Z,1.30
2019-01-18T10:49:31.379Z,1.30
2019-01-18T10:50:31.656Z,1.30
2019-01-18T10:51:33.571Z,1.50
2019-01-18T10:52:35.201Z,1.10
2019-01-18T10:53:34.598Z,1.10
2019-01-18T10:54:32.254Z,1.30
2019-01-18T10:55:32.353Z,1.00
2019-01-18T10:56:34.647Z,1.10
2019-01-18T10:57:32.594Z,1.20
2019-01-18T10:58:32.751Z,1.20
2019-01-18T10:59:32.947Z,0.90
2019-01-18T11:00:33.731Z,1.10
2019-01-18T11:01:34.031Z,1.20
2019-01-18T11:02:33.449Z,1.10
2019-01-18T11:03:33.627Z,1.00
2019-01-18T11:04:33.816Z,1.20
2019-01-18T11:05:34.021Z,1.00
2019-01-18T11:06:34.195Z,1.10
2019-01-18T11:07:37.092Z,1.00
2019-01-18T11:08:35.055Z,1.00
2019-01-18T11:09:39.125Z,1.10
2019-01-18T11:10:36.540Z,1.00
2019-01-18T11:11:35.244Z,1.10
2019-01-18T11:12:35.079Z,0.90
2019-01-18T11:13:35.245Z,1.30
2019-01-18T11:14:35.456Z,1.00
2019-01-18T11:15:36.250Z,1.00
2019-01-18T11:16:35.826Z,1.10
2019-01-18T11:17:36.004Z,1.00
2019-01-18T11:18:37.577Z,1.10
2019-01-18T11:19:37.878Z,1.10
2019-01-18T11:20:36.638Z,1.10
2019-01-18T11:21:36.670Z,1.00
2019-01-18T11:22:36.869Z,1.10
2019-01-18T11:23:37.052Z,1.20
2019-01-18T11:24:37.279Z,1.00
2019-01-18T11:25:38.615Z,1.10
2019-01-18T11:26:37.786Z,1.10
2019-01-18T11:27:40.165Z,1.00
2019-01-18T11:28:40.448Z,1.10
2019-01-18T11:29:39.620Z,1.00
2019-01-18T11:30:41.234Z,0.90
2019-01-18T11:31:39.083Z,1.00
2019-01-18T11:32:38.773Z,1.20
2019-01-18T11:33:38.763Z,1.20
2019-01-18T11:34:40.108Z,1.10
2019-01-18T11:35:39.274Z,1.30
2019-01-18T11:36:40.763Z,1.10
2019-01-18T11:37:39.623Z,1.00
2019-01-18T11:38:39.375Z,1.10
2019-01-18T11:39:39.841Z,1.00
2019-01-18T11:40:41.282Z,1.00
2019-01-18T11:41:41.229Z,1.00
2019-01-18T11:42:41.822Z,1.00
2019-01-18T11:43:41.615Z,0.90
2019-01-18T11:44:41.648Z,1.00
2019-01-18T11:45:41.621Z,1.00
2019-01-18T11:46:42.214Z,1.10
2019-01-18T11:47:41.196Z,1.00
2019-01-18T11:48:43.174Z,0.90
2019-01-18T11:49:41.858Z,0.90
2019-01-18T11:50:41.915Z,1.00
2019-01-18T11:51:41.837Z,0.90
2019-01-18T11:52:42.020Z,1.10
2019-01-18T11:53:42.123Z,0.90
2019-01-18T11:54:44.118Z,1.20
2019-01-18T11:55:42.524Z,1.20
2019-01-18T11:56:42.620Z,1.10
2019-01-18T11:57:42.708Z,1.40
2019-01-18T11:58:42.634Z,1.30
2019-01-18T11:59:42.970Z,1.10
2019-01-18T12:00:43.019Z,1.30
2019-01-18T12:01:43.194Z,1.20
2019-01-18T12:02:43.696Z,1.20
2019-01-18T12:03:43.479Z,1.30
2019-01-18T12:04:43.642Z,1.00
2019-01-18T12:05:43.880Z,1.10
2019-01-18T12:06:43.927Z,1.40
2019-01-18T12:07:44.092Z,1.10
2019-01-18T12:08:44.263Z,1.30
2019-01-18T12:09:44.429Z,2.30
2019-01-18T12:10:44.642Z,1.80
2019-01-18T12:11:44.804Z,1.70
2019-01-18T12:12:45.154Z,1.10
2019-01-18T12:13:46.042Z,1.00
2019-01-18T12:14:45.399Z,1.00
2019-01-18T12:15:45.441Z,1.30
2019-01-18T12:16:45.602Z,1.00
2019-01-18T12:17:45.819Z,0.80
2019-01-18T12:18:46.399Z,0.90
2019-01-18T12:19:46.405Z,1.00
2019-01-18T12:20:46.411Z,0.80
2019-01-18T12:21:46.476Z,1.10
2019-01-18T12:22:46.647Z,1.20
2019-01-18T12:23:46.808Z,1.20
2019-01-18T12:24:46.975Z,1.20
2019-01-18T12:25:47.152Z,1.10
2019-01-18T12:26:47.316Z,1.00
2019-01-18T12:27:47.483Z,1.10
2019-01-18T12:28:47.649Z,1.00
2019-01-18T12:29:47.815Z,1.00
2019-01-18T12:30:48.127Z,0.90
2019-01-18T12:31:48.176Z,0.80
2019-01-18T12:32:48.355Z,0.80
2019-01-18T12:33:48.638Z,1.20
2019-01-18T12:34:48.812Z,1.10
2019-01-18T12:35:48.846Z,0.90
2019-01-18T12:36:49.027Z,0.90
2019-01-18T12:37:49.202Z,1.00
2019-01-18T12:38:49.376Z,0.90
2019-01-18T12:39:49.563Z,1.10
2019-01-18T12:40:49.725Z,0.90
2019-01-18T12:41:49.893Z,1.10
2019-01-18T12:42:50.310Z,1.20
2019-01-18T12:43:50.319Z,1.00
2019-01-18T12:44:50.395Z,0.90
2019-01-18T12:45:50.563Z,0.80
2019-01-18T12:46:50.735Z,0.80
2019-01-18T12:47:50.906Z,0.80
2019-01-18T12:48:51.113Z,0.80
2019-01-18T12:49:51.302Z,0.80
2019-01-18T12:50:53.191Z,1.00
2019-01-18T12:51:51.610Z,0.90
2019-01-18T12:52:51.765Z,1.30
2019-01-18T12:53:51.936Z,1.60
2019-01-18T12:54:52.102Z,1.70
2019-01-18T12:55:52.287Z,1.20
2019-01-18T12:56:52.446Z,0.90
2019-01-18T12:57:52.618Z,1.10
2019-01-18T12:58:56.460Z,1.00
2019-01-18T12:59:52.949Z,0.90
2019-01-18T13:00:53.109Z,0.80
2019-01-18T13:01:53.283Z,0.80
2019-01-18T13:02:53.448Z,0.90
2019-01-18T13:03:53.635Z,0.80
2019-01-18T13:04:53.803Z,0.80
2019-01-18T13:05:53.971Z,0.90
2019-01-18T13:06:54.149Z,0.90
2019-01-18T13:07:54.337Z,1.20
2019-01-18T13:08:54.527Z,0.80
2019-01-18T13:09:54.678Z,0.80
2019-01-18T13:10:54.871Z,0.90
2019-01-18T13:11:55.089Z,1.00
2019-01-18T13:12:55.257Z,0.90
2019-01-18T13:13:55.426Z,0.90
2019-01-18T13:14:57.306Z,0.80
2019-01-18T13:15:55.947Z,1.10
2019-01-18T13:16:55.908Z,0.80
2019-01-18T13:17:56.058Z,0.90
2019-01-18T13:18:56.221Z,0.80
2019-01-18T13:19:56.393Z,1.00
2019-01-18T13:20:56.611Z,1.00
2019-01-18T13:21:56.752Z,1.00
2019-01-18T13:22:56.920Z,1.10
2019-01-18T13:23:57.084Z,1.00
2019-01-18T13:24:57.336Z,1.10
2019-01-18T13:25:57.433Z,1.00
2019-01-18T13:26:57.602Z,0.80
2019-01-18T13:27:59.830Z,0.90
2019-01-18T13:28:57.930Z,1.00
2019-01-18T13:29:58.103Z,0.90
2019-01-18T13:30:58.263Z,1.10
2019-01-18T13:31:58.759Z,1.00
2019-01-18T13:32:58.561Z,1.00
2019-01-18T13:34:03.026Z,1.20
2019-01-18T13:34:59.032Z,0.80
2019-01-18T13:35:59.035Z,0.90
2019-01-18T13:36:59.120Z,1.00
2019-01-18T13:37:59.552Z,0.90
2019-01-18T13:38:59.517Z,1.10
2019-01-18T13:39:59.735Z,1.00
2019-01-18T13:40:59.955Z,0.80
2019-01-18T13:42:00.064Z,1.20
2019-01-18T13:43:00.157Z,1.20
2019-01-18T13:44:00.317Z,1.10
2019-01-18T13:45:00.487Z,1.00
2019-01-18T13:46:00.663Z,1.30
2019-01-18T13:47:00.931Z,1.10
2019-01-18T13:48:00.984Z,1.20
2019-01-18T13:49:01.146Z,0.90
2019-01-18T13:50:01.937Z,1.00
2019-01-18T13:51:02.244Z,1.00
2019-01-18T13:52:02.303Z,0.90
2019-01-18T13:53:02.639Z,0.90
2019-01-18T13:54:03.005Z,1.00
2019-01-18T13:55:02.175Z,1.00
2019-01-18T13:56:02.356Z,1.10
2019-01-18T13:57:02.544Z,0.80
2019-01-18T13:58:02.693Z,1.20
2019-01-18T13:59:02.850Z,1.10
2019-01-18T14:00:03.020Z,1.00
2019-01-18T14:01:03.186Z,1.20
2019-01-18T14:02:03.371Z,1.10
2019-01-18T14:03:03.540Z,1.00
2019-01-18T14:04:03.706Z,1.20
2019-01-18T14:05:03.874Z,1.20
2019-01-18T14:06:04.043Z,0.80
2019-01-18T14:07:04.207Z,1.10
2019-01-18T14:08:04.390Z,0.80
2019-01-18T14:09:04.623Z,1.00
2019-01-18T14:10:04.762Z,1.00
2019-01-18T14:11:04.929Z,1.10
2019-01-18T14:12:05.094Z,0.90
2019-01-18T14:13:05.253Z,1.50
2019-01-18T14:14:05.422Z,1.00
2019-01-18T14:15:08.552Z,1.10
2019-01-18T14:16:05.849Z,1.00
2019-01-18T14:17:06.013Z,1.20
2019-01-18T14:18:06.185Z,1.10
2019-01-18T14:19:06.332Z,1.00
2019-01-18T14:20:08.502Z,1.30
2019-01-18T14:21:06.687Z,0.90
2019-01-18T14:22:06.857Z,1.00
2019-01-18T14:23:07.108Z,0.90
2019-01-18T14:24:07.207Z,1.20
2019-01-18T14:25:07.353Z,1.50
2019-01-18T14:26:07.600Z,1.10
2019-01-18T14:27:07.694Z,1.00
2019-01-18T14:28:07.862Z,1.20
2019-01-18T14:29:08.028Z,1.30
2019-01-18T14:30:08.218Z,1.20
2019-01-18T14:31:08.385Z,1.00
2019-01-18T14:32:08.555Z,1.20
2019-01-18T14:33:08.711Z,1.00
2019-01-18T14:34:08.876Z,1.20
2019-01-18T14:35:09.045Z,1.10
2019-01-18T14:36:09.203Z,1.10
2019-01-18T14:37:09.371Z,1.20
2019-01-18T14:38:09.534Z,1.20
2019-01-18T14:39:09.711Z,1.00
2019-01-18T14:40:09.870Z,1.50
2019-01-18T14:41:10.033Z,1.00